createdAt,value
2019-05-14T00:21:34.363Z,9.60
2019-05-14T00:51:41.157Z,9.30
2019-05-14T01:21:43.382Z,9.30
2019-05-14T01:51:45.993Z,9.00
2019-05-14T02:21:48.602Z,8.70
2019-05-14T02:51:51.237Z,8.40
2019-05-14T03:21:53.825Z,8.00
2019-05-14T03:52:00.061Z,7.90
2019-05-14T04:22:01.057Z,7.30
2019-05-14T04:52:03.661Z,6.90
2019-05-14T05:22:07.997Z,7.30
2019-05-14T05:52:10.516Z,8.20
2019-05-14T06:22:13.200Z,9.00
2019-05-14T06:52:15.822Z,9.70
2019-05-14T07:22:19.615Z,9.90
2019-05-14T07:52:22.265Z,9.90
2019-05-14T08:22:24.917Z,10.30
2019-05-14T08:52:28.832Z,11.30
2019-05-14T09:22:31.523Z,12.20
2019-05-14T09:52:34.126Z,11.00
2019-05-14T10:22:36.737Z,10.30
2019-05-14T10:52:39.632Z,10.60
2019-05-14T11:22:42.511Z,9.90
2019-05-14T11:52:45.105Z,10.30
2019-05-14T12:22:48.802Z,9.80
2019-05-14T12:52:52.115Z,10.00
2019-05-14T13:22:54.689Z,9.70
2019-05-14T13:53:02.678Z,11.20
2019-05-14T14:23:17.604Z,11.90
2019-05-14T14:53:09.206Z,11.60
2019-05-14T15:23:11.241Z,11.10
2019-05-14T15:53:13.923Z,11.50
2019-05-14T16:23:18.633Z,12.10
2019-05-14T16:53:20.934Z,11.70
2019-05-14T17:23:23.593Z,11.40
2019-05-14T17:53:26.245Z,11.40
2019-05-14T18:23:29.081Z,11.50
2019-05-14T18:53:31.845Z,11.60
2019-05-14T19:23:34.492Z,11.00
2019-05-14T19:53:39.197Z,10.50
2019-05-14T20:23:42.373Z,10.60
2019-05-14T20:53:45.343Z,10.60
2019-05-14T21:23:48.970Z,10.50
2019-05-14T21:53:51.822Z,10.30
2019-05-14T22:23:54.427Z,9.90
2019-05-14T22:53:58.852Z,10.20
2019-05-14T23:24:01.305Z,9.90
2019-05-14T23:54:03.942Z,10.00
